Buffalo, TX (75831)

10:34 AM CST on December 03, 2016 (GMT -0600)
TWCC | | Change Station

Elev 453 ft 31.42 °N, 96.25 °W | Updated 23 seconds ago

Overcast
Overcast
50.2 °F
Feels Like 50.2 °F
N
12.1
Wind Variable Wind from West
Gusts 12.1 mph

Today
High -- | Low -- °F
--% Chance of Precip.
Yesterday
High -- | Low -- °F
Precip. -- in
Pressure 30.04 in
Visibility 10.0 miles
Clouds Overcast 1000 ft
Dew Point 50 °F
Humidity 99%
Rainfall 0.89 in
Snow Depth Not available.
7:07 AM 5:20 PM
Waxing Crescent, 16% visible
METAR KLXY 031615Z AUTO 07013G21KT 10SM OVC010 10/08 A3004 RMK AO2 T00950082
Pressure 30.04 in
Visibility 10.0 miles
Clouds Overcast 1000 ft
Dew Point 50 °F
Humidity 99%
Rainfall 0.89 in
Snow Depth Not available.
7:07 AM 5:20 PM
Waxing Crescent, 16% visible
METAR KLXY 031615Z AUTO 07013G21KT 10SM OVC010 10/08 A3004 RMK AO2 T00950082

10-Day Weather Forecast

Almanac

Astronomy

Dec. 03, 2016 Rise Set
Actual Time
Civil Twilight
Nautical Twilight
Astronomical Twilight
Moon
Length of Visible Light
Length of Day
Tomorrow will be .
, % of the Moon is Illuminated

Today's Extremes

State Highs State Lows

Community

WunderPhotos

Upload Photos

1,955,440 photos uploaded!

WunderBlog® & News

Nearby

Air Quality

  Air Quality AQ Index Pollutant
Not available.

Snow Depth

Station Depth Elevation

Earthquake Activity

City Distance Mag. Time & Date
Minimum magnitude displayed is 2.5.

Coastal Water Temperatures

Place Temperature

Stations

Nearby Weather Stations

Station Location Temp. Windchill Dew Point Humidity Wind Precip. Elev Updated Type
                   

Watches & Warnings

There are currently no watches in effect.